Terminal Aerodrome Forecast
Issued by NWS Amarillo, TX

Home | Current Version | Previous Version | Text Only | Print | Product List | Glossary On
Versions: 1 2 3 4 5 6 7 8 9 10 11 12 13 14 15 16 17 18 19 20
000
FTUS44 KAMA 010500
TAFGUY
TAF
KGUY 010532Z 0106/0206 16008KT P6SM VCSH SCT050 BKN100
     FM011600 18011KT P6SM SCT050 BKN100 PROB30 0120/0202 -TSRA
      OVC040CB=

USA.gov is the U.S. government's official web portal to all federal, state and local government web resources and services.